Time;durP1;ratioP1;P1;durP2;ratioP2;P2;SDS_P1;SDS_P2;PMS_P1;PMS_P2;Temp;Humidity;BMP_temperature;BMP_pressure;BME280_temperature;BME280_humidity;BME280_pressure;Samples;Min_cycle;Max_cycle;Signal;HPM_P1;HPM_P2
2022/11/23 00:01:40;;;;;;;1.35;0.40;;;;;;;14.91;100.00;99869.56;10214813;28;96587;-84
2022/11/23 00:06:43;;;;;;;2.42;0.50;;;;;;;14.88;100.00;99881.09;10214659;28;96949;-84
2022/11/23 00:11:47;;;;;;;3.35;0.82;;;;;;;14.93;100.00;99883.47;10214397;28;96643;-83
2022/11/23 00:16:51;;;;;;;2.13;0.80;;;;;;;14.89;100.00;99874.91;10214464;28;96751;-83
2022/11/23 00:21:54;;;;;;;2.60;0.70;;;;;;;14.93;100.00;99876.41;10214217;28;96846;-82
2022/11/23 00:26:58;;;;;;;0.80;0.50;;;;;;;14.94;100.00;99888.66;10212372;28;97444;-83
2022/11/23 00:32:04;;;;;;;3.10;0.77;;;;;;;14.94;100.00;99879.91;10244997;28;96814;-83
2022/11/23 00:37:08;;;;;;;4.95;0.85;;;;;;;14.95;100.00;99868.44;10213412;28;97009;-83
2022/11/23 00:42:11;;;;;;;2.35;0.60;;;;;;;14.98;100.00;99856.91;10213130;28;96702;-84
2022/11/23 00:47:15;;;;;;;3.08;0.55;;;;;;;14.98;100.00;99862.16;10213091;28;96719;-83
2022/11/23 00:52:18;;;;;;;3.67;0.60;;;;;;;14.98;100.00;99849.00;10213320;28;96576;-83
2022/11/23 00:57:22;;;;;;;1.67;0.70;;;;;;;14.97;100.00;99856.03;10225075;28;96744;-83
2022/11/23 01:02:26;;;;;;;2.45;0.50;;;;;;;14.98;100.00;99844.56;10253862;28;96690;-83
2022/11/23 01:07:30;;;;;;;1.13;0.38;;;;;;;14.97;100.00;99842.88;10232809;28;96740;-84
2022/11/23 01:12:33;;;;;;;1.25;0.43;;;;;;;14.97;100.00;99832.34;10212332;28;96879;-83
2022/11/23 01:17:38;;;;;;;2.97;0.65;;;;;;;15.00;100.00;99813.72;10210928;28;96675;-83
2022/11/23 01:22:41;;;;;;;0.85;0.20;;;;;;;15.01;100.00;99791.75;10212450;28;97040;-83
2022/11/23 01:27:45;;;;;;;2.40;0.47;;;;;;;15.03;100.00;99786.41;10217793;28;96868;-84
2022/11/23 01:32:49;;;;;;;3.30;0.50;;;;;;;15.05;100.00;99790.63;10252317;28;96790;-84
2022/11/23 01:37:52;;;;;;;2.53;0.47;;;;;;;15.03;100.00;99784.59;10251556;28;97122;-82
2022/11/23 01:42:59;;;;;;;0.30;0.20;;;;;;;15.02;100.00;99785.53;10220207;28;96729;-83
2022/11/23 01:48:08;;;;;;;1.63;0.30;;;;;;;15.02;100.00;99785.53;10211952;28;96779;-82
2022/11/23 01:53:11;;;;;;;1.10;0.40;;;;;;;15.04;100.00;99788.91;10211988;28;96677;-83
2022/11/23 01:58:19;;;;;;;2.72;0.55;;;;;;;15.02;100.00;99788.16;10211441;28;97122;-83
2022/11/23 02:03:24;;;;;;;1.35;0.40;;;;;;;15.03;100.00;99786.41;10209822;28;96803;-84
2022/11/23 02:08:28;;;;;;;2.33;0.30;;;;;;;15.06;100.00;99773.03;10209590;28;96702;-84
2022/11/23 02:13:31;;;;;;;2.47;0.60;;;;;;;15.10;100.00;99778.03;10211288;28;96797;-83
2022/11/23 02:18:38;;;;;;;2.60;0.20;;;;;;;15.09;100.00;99776.31;10210844;28;97074;-82
2022/11/23 02:23:50;;;;;;;2.03;0.25;;;;;;;15.10;100.00;99770.13;10209979;28;97664;-83
2022/11/23 02:29:00;;;;;;;1.23;0.20;;;;;;;15.12;100.00;99759.50;10225509;28;96924;-83
2022/11/23 02:34:03;;;;;;;1.08;0.30;;;;;;;15.12;100.00;99757.72;10217765;28;97211;-83
2022/11/23 02:39:10;;;;;;;0.40;0.10;;;;;;;15.12;100.00;99755.09;10210035;28;96672;-83
2022/11/23 02:44:34;;;;;;;0.80;0.15;;;;;;;15.11;100.00;99753.41;10210795;28;96982;-83
2022/11/23 02:49:37;;;;;;;0.45;0.20;;;;;;;15.11;100.00;99758.69;10210468;28;96604;-82
2022/11/23 02:54:40;;;;;;;0.57;0.17;;;;;;;15.11;100.00;99742.88;10209565;28;96679;-83
2022/11/23 02:59:45;;;;;;;0.20;0.10;;;;;;;15.12;100.00;99744.56;10208673;28;96895;-82
2022/11/23 03:04:48;;;;;;;0.40;0.10;;;;;;;15.09;100.00;99744.72;10209928;28;96710;-83
2022/11/23 03:09:51;;;;;;;0.05;0.00;;;;;;;15.12;100.00;99739.28;10209465;28;96610;-82
2022/11/23 03:14:56;;;;;;;0.43;0.10;;;;;;;15.12;100.00;99727.91;10211872;28;97041;-83
2022/11/23 03:19:59;;;;;;;0.10;0.10;;;;;;;15.11;100.00;99727.06;10215811;28;96749;-82
2022/11/23 03:25:02;;;;;;;0.45;0.10;;;;;;;15.15;100.00;99732.13;10216237;28;96631;-83
2022/11/23 03:30:09;;;;;;;0.00;0.00;;;;;;;15.16;100.00;99725.94;10240486;28;96928;-82
2022/11/23 03:35:12;;;;;;;0.98;0.22;;;;;;;15.16;100.00;99739.09;10256198;28;96693;-83
2022/11/23 03:40:16;;;;;;;0.30;0.17;;;;;;;15.17;100.00;99740.81;10237040;28;96911;-83
2022/11/23 03:45:20;;;;;;;1.40;0.38;;;;;;;15.16;100.00;99754.91;10215087;28;96867;-83
2022/11/23 03:50:23;;;;;;;0.75;0.10;;;;;;;15.12;100.00;99754.25;10213834;28;96735;-84
2022/11/23 03:55:26;;;;;;;1.75;0.28;;;;;;;15.16;100.00;99752.28;10215223;28;96792;-85
2022/11/23 04:00:31;;;;;;;0.95;0.20;;;;;;;15.17;100.00;99740.81;10247800;28;96792;-83
2022/11/23 04:05:34;;;;;;;;;;;;;;;15.09;100.00;99744.72;10255168;28;96794;-83
2022/11/23 04:10:37;;;;;;;1.15;0.20;;;;;;;15.15;100.00;99742.66;10254640;28;96640;-84
2022/11/23 04:15:42;;;;;;;2.95;0.40;;;;;;;15.08;100.00;99750.94;10224559;28;96946;-83
2022/11/23 04:20:45;;;;;;;1.70;0.20;;;;;;;15.10;100.00;99754.34;10214388;28;96722;-85
2022/11/23 04:25:48;;;;;;;2.17;0.32;;;;;;;15.11;100.00;99756.03;10214420;28;96685;-82
2022/11/23 04:30:53;;;;;;;1.08;0.40;;;;;;;15.15;100.00;99758.47;10229069;28;96778;-84
2022/11/23 04:35:56;;;;;;;1.70;0.60;;;;;;;15.17;100.00;99775.06;10213700;28;96979;-84
2022/11/23 04:40:59;;;;;;;2.25;0.60;;;;;;;15.15;100.00;99769.00;10212499;28;96573;-84
2022/11/23 04:46:03;;;;;;;2.65;0.55;;;;;;;15.13;100.00;99777.84;10213664;28;96695;-83
2022/11/23 04:51:07;;;;;;;4.85;0.75;;;;;;;15.12;100.00;99778.78;10213539;28;96743;-84
2022/11/23 04:56:10;;;;;;;2.42;0.70;;;;;;;15.12;100.00;99778.78;10212609;28;96838;-84
2022/11/23 05:01:15;;;;;;;2.17;0.80;;;;;;;15.10;100.00;99790.38;10212756;28;97073;-83
2022/11/23 05:06:18;;;;;;;;;;;;;;;15.09;100.00;99800.03;10213447;28;96656;-84
2022/11/23 05:11:21;;;;;;;2.88;0.80;;;;;;;15.10;100.00;99806.16;10212601;28;97630;-84
2022/11/23 05:16:26;;;;;;;1.58;0.60;;;;;;;15.13;100.00;99809.47;10212937;28;96871;-84
2022/11/23 05:21:29;;;;;;;5.18;1.08;;;;;;;15.17;100.00;99819.81;10212797;28;96736;-83
2022/11/23 05:26:32;;;;;;;6.00;0.85;;;;;;;15.13;100.00;99830.53;10211848;28;96584;-83
2022/11/23 05:31:36;;;;;;;2.58;0.80;;;;;;;15.13;100.00;99835.78;10247477;28;96855;-82
2022/11/23 05:36:40;;;;;;;3.10;0.57;;;;;;;15.08;100.00;99837.00;10250777;28;96750;-82
2022/11/23 05:41:44;;;;;;;0.73;0.35;;;;;;;15.07;100.00;99851.09;10213622;28;96709;-82
2022/11/23 05:46:49;;;;;;;2.03;0.40;;;;;;;15.05;100.00;99861.72;10211314;28;96729;-82
2022/11/23 05:51:52;;;;;;;2.95;0.45;;;;;;;15.01;100.00;99872.50;10211020;28;97610;-82
2022/11/23 05:56:55;;;;;;;1.20;0.28;;;;;;;14.99;100.00;99901.56;10211681;28;96728;-82
2022/11/23 06:02:00;;;;;;;3.58;0.77;;;;;;;14.99;100.00;99891.03;10210694;28;97263;-83
2022/11/23 06:07:02;;;;;;;;;;;;;;;14.91;100.00;99903.78;10212271;28;96703;-83
2022/11/23 06:12:06;;;;;;;2.80;0.80;;;;;;;14.90;100.00;99905.53;10211271;28;96765;-84
2022/11/23 06:17:11;;;;;;;4.70;1.13;;;;;;;14.85;100.00;99920.78;10210718;28;96687;-84
2022/11/23 06:22:15;;;;;;;5.05;0.77;;;;;;;14.80;100.00;99929.81;10210087;28;96727;-85
2022/11/23 06:27:18;;;;;;;5.00;0.77;;;;;;;14.78;100.00;99944.84;10212880;28;96674;-84
2022/11/23 06:32:22;;;;;;;4.00;0.80;;;;;;;14.71;100.00;99944.34;10215305;28;97333;-83
2022/11/23 06:37:26;;;;;;;4.75;1.38;;;;;;;14.60;100.00;99958.06;10210017;28;96691;-83
2022/11/23 06:42:29;;;;;;;4.38;1.20;;;;;;;14.59;100.00;99981.84;10210043;28;97308;-83
2022/11/23 06:47:43;;;;;;;6.68;1.52;;;;;;;14.58;100.00;99970.47;10211084;28;96793;-83
2022/11/23 06:52:46;;;;;;;4.93;1.02;;;;;;;14.62;100.00;99960.63;10216722;28;96760;-84
2022/11/23 06:57:49;;;;;;;3.97;0.73;;;;;;;14.58;100.00;99959.94;10224828;28;96767;-84
2022/11/23 07:02:55;;;;;;;4.88;0.90;;;;;;;14.60;100.00;99967.75;10249097;28;96834;-84
2022/11/23 07:07:58;;;;;;;6.03;1.25;;;;;;;14.57;100.00;99987.19;10215770;28;96604;-84
2022/11/23 07:13:04;;;;;;;4.72;1.20;;;;;;;14.58;100.00;99981.00;10214949;28;96777;-84
2022/11/23 07:18:11;;;;;;;6.20;1.20;;;;;;;14.54;100.00;99995.22;10216137;28;96746;-83
2022/11/23 07:23:15;;;;;;;8.30;1.40;;;;;;;14.50;100.00;100026.13;10216307;28;96702;-82
2022/11/23 07:28:18;;;;;;;6.63;1.30;;;;;;;14.46;100.00;100034.25;10226141;28;97404;-84
2022/11/23 07:33:23;;;;;;;5.97;1.10;;;;;;;14.48;100.00;100041.13;10255936;28;96856;-84
2022/11/23 07:38:26;;;;;;;9.13;1.20;;;;;;;14.49;100.00;100057.78;10235859;28;96802;-84
2022/11/23 07:43:29;;;;;;;7.20;1.27;;;;;;;14.46;100.00;100073.72;10214772;28;96750;-84
2022/11/23 07:48:34;;;;;;;5.60;1.33;;;;;;;14.41;100.00;100094.16;10215518;28;96764;-85
2022/11/23 07:53:38;;;;;;;10.15;2.30;;;;;;;14.36;100.00;100095.22;10215274;28;96784;-84
2022/11/23 07:58:41;;;;;;;6.10;1.65;;;;;;;14.40;100.00;100095.06;10214179;28;97005;-84
2022/11/23 08:03:46;;;;;;;11.13;1.80;;;;;;;14.36;100.00;100108.38;10213209;28;96745;-84
2022/11/23 08:08:50;;;;;;;10.80;1.90;;;;;;;14.35;100.00;100113.75;10214076;28;96607;-84
2022/11/23 08:13:53;;;;;;;9.90;2.38;;;;;;;14.28;100.00;100121.03;10215096;28;96991;-83
2022/11/23 08:18:58;;;;;;;8.35;1.92;;;;;;;14.27;100.00;100134.25;10214071;28;96776;-84
2022/11/23 08:24:01;;;;;;;10.93;2.20;;;;;;;14.29;100.00;100150.81;10213256;28;96770;-84
2022/11/23 08:29:04;;;;;;;13.38;3.05;;;;;;;14.34;100.00;100148.84;10214275;28;97092;-84
2022/11/23 08:34:09;;;;;;;13.10;3.13;;;;;;;14.25;100.00;100152.75;10213308;28;97156;-84
2022/11/23 08:39:13;;;;;;;20.05;3.67;;;;;;;14.24;100.00;100151.03;10214298;28;96638;-85
2022/11/23 08:44:16;;;;;;;20.13;3.38;;;;;;;14.18;100.00;100146.94;10213803;28;96784;-84
2022/11/23 08:49:21;;;;;;;17.17;2.70;;;;;;;14.16;100.00;100158.47;10212991;28;96573;-84
2022/11/23 08:54:24;;;;;;;16.55;3.72;;;;;;;14.21;100.00;100166.97;10212239;28;97088;-84
2022/11/23 08:59:27;;;;;;;19.88;4.15;;;;;;;14.21;100.00;100168.75;10212273;28;96794;-85
2022/11/23 09:04:32;;;;;;;15.80;3.42;;;;;;;14.30;100.00;100170.94;10213110;28;96808;-84
2022/11/23 09:09:36;;;;;;;19.20;4.38;;;;;;;14.41;100.00;100178.34;10212391;28;96720;-85
2022/11/23 09:14:39;;;;;;;16.50;3.63;;;;;;;14.62;100.00;100182.53;10211120;28;96702;-84
2022/11/23 09:19:43;;;;;;;15.27;4.20;;;;;;;14.75;100.00;100183.63;10212113;28;96961;-84
2022/11/23 09:24:46;;;;;;;18.90;4.05;;;;;;;14.79;100.00;100179.06;10212031;28;96765;-84
2022/11/23 09:29:50;;;;;;;18.98;4.35;;;;;;;14.89;100.00;100158.38;10235213;28;96794;-84
2022/11/23 09:34:54;;;;;;;21.77;4.40;;;;;;;14.89;100.00;100166.28;10251818;28;96756;-84
2022/11/23 09:39:57;;;;;;;24.67;4.65;;;;;;;14.90;100.00;100175.88;10211873;28;96977;-84
2022/11/23 09:45:14;;;;;;;20.05;4.35;;;;;;;14.94;100.00;100173.00;10210295;28;96678;-83
2022/11/23 09:50:24;;;;;;;26.38;5.55;;;;;;;14.83;100.00;100183.22;10211155;28;96710;-83
2022/11/23 09:55:36;;;;;;;25.42;4.70;;;;;;;14.73;100.00;100185.50;10211308;28;96848;-82
2022/11/23 10:00:46;;;;;;;21.88;4.93;;;;;;;14.83;100.00;100180.59;10238788;28;96728;-82
2022/11/23 10:06:00;;;;;;;24.80;7.28;;;;;;;14.81;100.00;100192.13;10251006;28;96689;-82
2022/11/23 10:11:21;;;;;;;26.13;5.20;;;;;;;14.83;100.00;100195.53;10233405;28;96679;-82
2022/11/23 10:16:35;;;;;;;22.23;5.18;;;;;;;14.99;100.00;100207.00;10211052;28;96861;-82
2022/11/23 10:21:51;;;;;;;24.20;4.50;;;;;;;15.12;100.00;100197.53;10210837;28;96812;-82
2022/11/23 10:26:54;;;;;;;27.80;5.95;;;;;;;15.19;100.00;100224.41;10224790;28;96833;-82
2022/11/23 10:31:59;;;;;;;27.30;4.53;;;;;;;15.28;100.00;100225.72;10216631;28;96784;-82
2022/11/23 10:37:08;;;;;;;22.70;4.97;;;;;;;15.39;100.00;100233.94;10216192;28;96798;-82
2022/11/23 10:42:21;;;;;;;18.35;4.43;;;;;;;15.53;100.00;100216.50;10216892;28;96678;-82
2022/11/23 10:47:37;;;;;;;27.23;6.25;;;;;;;15.57;100.00;100205.72;10217433;28;97573;-82
2022/11/23 10:52:51;;;;;;;23.58;5.00;;;;;;;15.64;100.00;100222.09;10216773;28;96658;-81
2022/11/23 10:57:54;;;;;;;23.60;4.88;;;;;;;15.67;100.00;100224.59;10216463;28;97184;-81
2022/11/23 11:02:59;;;;;;;20.33;5.25;;;;;;;15.71;100.00;100236.66;10216953;28;96865;-81
2022/11/23 11:08:13;;;;;;;25.67;5.38;;;;;;;15.68;100.00;100226.28;10216050;28;96729;-82
2022/11/23 11:13:25;;;;;;;20.88;5.85;;;;;;;15.71;100.00;100235.81;10217066;28;96761;-81
2022/11/23 11:18:31;;;;;;;31.48;5.70;;;;;;;15.75;100.00;100232.91;10216474;28;97201;-81
2022/11/23 11:23:41;;;;;;;26.73;5.47;;;;;;;15.80;100.00;100240.59;10215876;28;96856;-81
2022/11/23 11:28:49;;;;;;;31.85;6.57;;;;;;;15.84;100.00;100237.72;10236671;28;96860;-79
2022/11/23 11:33:58;;;;;;;28.10;5.43;;;;;;;15.86;100.00;100241.09;10254722;28;97258;-80
2022/11/23 11:39:13;;;;;;;35.08;6.47;;;;;;;15.98;100.00;100228.16;10215098;28;96851;-80
2022/11/23 11:44:24;;;;;;;23.63;6.20;;;;;;;16.25;100.00;100220.53;10215029;28;96780;-82
2022/11/23 11:49:33;;;;;;;24.95;6.80;;;;;;;16.44;100.00;100215.91;10214852;28;96975;-82
2022/11/23 11:54:43;;;;;;;26.35;5.82;;;;;;;16.26;100.00;100203.78;10215292;28;96920;-83
2022/11/23 11:59:49;;;;;;;21.98;5.68;;;;;;;16.20;100.00;100210.22;10214311;28;96740;-82
2022/11/23 12:05:05;;;;;;;31.85;6.72;;;;;;;16.15;100.00;100214.91;10215457;28;96820;-83
2022/11/23 12:10:16;;;;;;;27.60;6.50;;;;;;;16.29;100.00;100200.09;10214546;28;96755;-82
2022/11/23 12:15:21;;;;;;;25.83;6.00;;;;;;;16.53;100.00;100203.97;10213767;28;96763;-82
2022/11/23 12:20:55;;;;;;;27.23;5.95;;;;;;;16.44;100.00;100199.22;10212952;28;97016;-82
2022/11/23 12:26:14;;;;;;;27.43;6.63;;;;;;;16.25;100.00;100191.50;10222260;28;96966;-82
2022/11/23 12:31:30;;;;;;;26.88;6.47;;;;;;;16.13;100.00;100187.75;10253334;28;97579;-82
2022/11/23 12:37:08;;;;;;;23.58;6.30;;;;;;;16.04;100.00;100185.66;10254098;28;96665;-82
2022/11/23 12:42:20;;;;;;;29.02;6.32;;;;;;;16.30;100.00;100186.81;10252012;28;96676;-83
2022/11/23 12:47:41;;;;;;;32.92;6.75;;;;;;;16.71;100.00;100174.78;10213011;28;96675;-83
2022/11/23 12:52:59;;;;;;;25.63;5.68;;;;;;;16.98;100.00;100167.06;10213024;28;96693;-83
2022/11/23 12:58:11;;;;;;;23.67;6.28;;;;;;;17.14;100.00;100169.63;10217298;28;96901;-82
2022/11/23 13:04:11;;;;;;;32.05;6.32;;;;;;;17.16;100.00;100162.44;10218993;28;97151;-82
2022/11/23 13:09:38;;;;;;;27.42;6.68;;;;;;;17.03;100.00;100150.94;10212407;28;96851;-82
2022/11/23 13:14:49;;;;;;;22.83;5.88;;;;;;;16.76;100.00;100147.22;10211310;28;96587;-82
2022/11/23 13:20:12;;;;;;;26.65;6.50;;;;;;;16.84;100.00;100144.13;10212392;28;96645;-82
2022/11/23 13:25:23;;;;;;;28.95;5.90;;;;;;;16.66;100.00;100142.53;10214675;28;96758;-83
2022/11/23 13:30:30;;;;;;;25.13;6.57;;;;;;;16.46;100.00;100139.28;10251460;28;96896;-82
2022/11/23 13:36:00;;;;;;;28.90;7.18;;;;;;;16.47;100.00;100146.28;10228679;28;96845;-81
2022/11/23 13:41:56;;;;;;;30.17;6.50;;;;;;;16.52;100.00;100138.94;10211505;28;96599;-82
2022/11/23 13:47:04;;;;;;;26.02;6.38;;;;;;;16.45;100.00;100156.06;10197201;28;97285;-82
2022/11/23 13:52:27;;;;;;;30.23;7.05;;;;;;;16.25;100.00;100150.13;10212177;28;96793;-82
2022/11/23 13:57:31;;;;;;;31.42;6.35;;;;;;;15.94;100.00;100148.38;10210191;28;96839;-82
2022/11/23 14:02:36;;;;;;;31.43;7.17;;;;;;;15.80;100.00;100162.31;10211141;28;97011;-82
2022/11/23 14:07:44;;;;;;;28.55;6.50;;;;;;;15.72;100.00;100164.56;10210357;28;96818;-82
2022/11/23 14:12:52;;;;;;;30.63;6.40;;;;;;;16.31;100.00;100167.41;10210129;28;96812;-83
2022/11/23 14:18:18;;;;;;;27.90;6.35;;;;;;;17.34;100.00;100150.75;10210941;28;96770;-83
2022/11/23 14:23:45;;;;;;;22.65;6.00;;;;;;;17.35;100.00;100143.66;10210280;28;96699;-82
2022/11/23 14:29:06;;;;;;;31.77;6.75;;;;;;;17.07;100.00;100155.09;10210872;28;96724;-83
2022/11/23 14:34:20;;;;;;;25.95;5.93;;;;;;;16.62;100.00;100140.09;10210232;28;96763;-82
2022/11/23 14:40:01;;;;;;;32.42;6.00;;;;;;;16.41;100.00;100136.91;10209923;28;96583;-82
2022/11/23 14:45:06;;;;;;;31.52;6.43;;;;;;;16.33;100.00;100154.13;10211216;28;96707;-82
2022/11/23 14:50:24;;;;;;;24.02;6.38;;;;;;;16.23;100.00;100154.66;10209352;28;96700;-82
2022/11/23 14:55:31;;;;;;;32.58;7.45;;;;;;;16.34;100.00;100147.91;10209873;28;96671;-82
2022/11/23 15:00:39;;;;;;;34.05;6.82;;;;;;;16.95;100.00;100144.34;10208988;28;97298;-82
2022/11/23 15:05:47;;;;;;;26.63;6.95;;;;;;;17.46;100.00;100145.66;10209519;28;96838;-82
2022/11/23 15:11:00;;;;;;;25.67;5.85;;;;;;;17.56;100.00;100138.84;10213139;28;96873;-82
2022/11/23 15:16:05;;;;;;;22.63;6.20;;;;;;;17.57;100.00;100143.19;10216793;28;96949;-82
2022/11/23 15:21:21;;;;;;;35.83;6.75;;;;;;;17.49;100.00;100145.47;10215847;28;96745;-83
2022/11/23 15:26:31;;;;;;;28.17;6.82;;;;;;;17.45;100.00;100150.09;10236267;28;97009;-82
2022/11/23 15:31:50;;;;;;;28.27;7.28;;;;;;;17.06;100.00;100153.38;10255384;28;96763;-83
2022/11/23 15:37:16;;;;;;;28.75;6.85;;;;;;;16.50;100.00;100155.78;10216030;28;96904;-82
2022/11/23 15:42:22;;;;;;;31.95;7.20;;;;;;;16.61;100.00;100159.50;10215042;28;96881;-82
2022/11/23 15:47:29;;;;;;;29.15;6.70;;;;;;;16.78;100.00;100170.91;10215273;28;96615;-83
2022/11/23 15:52:36;;;;;;;34.60;7.28;;;;;;;16.76;100.00;100172.75;10214742;28;96881;-82
2022/11/23 15:57:41;;;;;;;29.77;6.40;;;;;;;16.49;100.00;100181.34;10215017;28;96952;-82
2022/11/23 16:02:44;;;;;;;31.80;7.05;;;;;;;16.19;100.00;100186.56;10251349;28;96711;-82
2022/11/23 16:07:55;;;;;;;33.38;7.57;;;;;;;15.85;100.00;100191.94;10240168;28;96885;-82
2022/11/23 16:12:59;;;;;;;30.08;7.00;;;;;;;15.71;100.00;100209.44;10214228;28;96730;-82
2022/11/23 16:18:04;;;;;;;28.27;6.30;;;;;;;15.68;100.00;100211.28;10214311;28;96594;-82
2022/11/23 16:23:17;;;;;;;26.15;6.60;;;;;;;15.65;100.00;100197.44;10214136;28;96889;-82
2022/11/23 16:28:27;;;;;;;35.03;7.80;;;;;;;15.61;100.00;100199.38;10214198;28;96892;-82
2022/11/23 16:33:30;;;;;;;29.33;7.13;;;;;;;15.50;100.00;100207.84;10214094;28;96861;-82
2022/11/23 16:38:35;;;;;;;28.05;6.65;;;;;;;15.38;100.00;100208.50;10213629;28;97170;-82
2022/11/23 16:43:38;;;;;;;28.73;7.18;;;;;;;15.23;100.00;100209.28;10212606;28;96745;-82
2022/11/23 16:48:42;;;;;;;33.92;7.15;;;;;;;15.15;100.00;100237.81;10213262;28;97681;-82
2022/11/23 16:53:47;;;;;;;32.73;7.17;;;;;;;15.04;100.00;100239.19;10213284;28;96973;-82
2022/11/23 16:59:16;;;;;;;31.85;7.47;;;;;;;14.91;100.00;100233.72;10213030;28;96834;-82
2022/11/23 17:04:20;;;;;;;29.73;7.53;;;;;;;14.78;100.00;100234.41;10212611;28;96831;-82
2022/11/23 17:09:24;;;;;;;25.98;6.05;;;;;;;14.75;100.00;100228.38;10212420;28;96745;-82
2022/11/23 17:14:28;;;;;;;26.38;6.20;;;;;;;14.67;100.00;100248.94;10213060;28;96964;-82
2022/11/23 17:19:31;;;;;;;26.87;6.47;;;;;;;14.61;100.00;100257.16;10213091;28;96781;-82
2022/11/23 17:24:36;;;;;;;29.33;6.65;;;;;;;14.66;100.00;100260.41;10225370;28;97048;-82
2022/11/23 17:29:40;;;;;;;31.85;11.80;;;;;;;14.76;100.00;100263.44;10251410;28;96932;-82
2022/11/23 17:34:44;;;;;;;26.95;5.97;;;;;;;14.84;100.00;100263.06;10219854;28;96575;-82
2022/11/23 17:39:50;;;;;;;29.52;6.63;;;;;;;14.80;100.00;100258.88;10211851;28;96823;-82
2022/11/23 17:44:54;;;;;;;28.73;7.65;;;;;;;14.74;100.00;100255.59;10210870;28;96685;-82
2022/11/23 17:49:58;;;;;;;31.00;6.82;;;;;;;14.69;100.00;100249.72;10212054;28;96948;-82
2022/11/23 17:55:03;;;;;;;23.05;6.32;;;;;;;14.55;100.00;100249.53;10211362;28;96748;-81
2022/11/23 18:00:07;;;;;;;;;;;;;;;14.49;100.00;100255.13;10211412;28;96595;-82
2022/11/23 18:05:11;;;;;;;31.30;8.97;;;;;;;14.51;100.00;100248.00;10211823;28;97444;-81
2022/11/23 18:10:24;;;;;;;34.78;8.70;;;;;;;14.47;100.00;100246.44;10211604;28;96843;-81
2022/11/23 18:15:29;;;;;;;35.42;10.07;;;;;;;14.41;100.00;100241.47;10210213;28;96950;-81
2022/11/23 18:20:32;;;;;;;35.97;10.75;;;;;;;14.40;100.00;100245.03;10210533;28;96760;-81
2022/11/23 18:25:36;;;;;;;33.50;12.02;;;;;;;14.36;100.00;100266.19;10216940;28;97396;-82
2022/11/23 18:30:40;;;;;;;28.13;10.43;;;;;;;14.30;100.00;100270.91;10209501;28;96782;-82
2022/11/23 18:35:43;;;;;;;28.45;9.63;;;;;;;14.23;100.00;100272.97;10210114;28;96766;-81
2022/11/23 18:40:47;;;;;;;30.98;9.63;;;;;;;14.10;100.00;100274.44;10210739;28;96698;-81
2022/11/23 18:45:51;;;;;;;34.97;9.02;;;;;;;13.99;100.00;100265.28;10214091;28;96728;-81
2022/11/23 18:50:54;;;;;;;37.00;10.03;;;;;;;13.94;100.00;100274.31;10216548;28;97002;-82
2022/11/23 18:56:04;;;;;;;29.73;8.95;;;;;;;13.96;100.00;100273.28;10216843;28;96823;-82
2022/11/23 19:01:09;;;;;;;33.95;9.05;;;;;;;13.94;100.00;100296.16;10236119;28;96847;-82
2022/11/23 19:06:15;;;;;;;32.83;9.85;;;;;;;13.92;100.00;100308.53;10256762;28;96589;-82
2022/11/23 19:11:22;;;;;;;31.35;9.52;;;;;;;13.84;100.00;100331.69;10256592;28;96684;-82
2022/11/23 19:16:27;;;;;;;33.72;10.32;;;;;;;13.79;100.00;100305.63;10227769;28;96846;-82
2022/11/23 19:21:32;;;;;;;28.50;8.82;;;;;;;13.75;100.00;100319.78;10215700;28;96912;-82
2022/11/23 19:26:37;;;;;;;30.33;9.27;;;;;;;13.68;100.00;100320.16;10253149;28;96675;-82
2022/11/23 19:31:39;;;;;;;;;;;;;;;13.45;100.00;100308.88;10242164;28;96748;-82
2022/11/23 19:36:43;;;;;;;36.92;8.80;;;;;;;13.43;100.00;100300.19;10215425;28;96875;-82
2022/11/23 19:41:47;;;;;;;30.50;8.88;;;;;;;13.39;100.00;100315.25;10215284;28;96671;-82
2022/11/23 19:46:50;;;;;;;;;;;;;;;13.20;100.00;100330.91;10215704;28;96787;-82
2022/11/23 19:51:55;;;;;;;32.75;8.93;;;;;;;13.33;100.00;100335.66;10216541;28;96797;-82
2022/11/23 19:56:59;;;;;;;37.65;9.27;;;;;;;13.37;100.00;100363.50;10214004;28;96843;-82
2022/11/23 20:02:03;;;;;;;29.30;9.90;;;;;;;13.43;100.00;100369.34;10214713;28;96758;-82
2022/11/23 20:07:06;;;;;;;30.48;8.82;;;;;;;13.42;100.00;100367.63;10214238;28;97022;-82
2022/11/23 20:12:10;;;;;;;31.02;9.18;;;;;;;13.46;100.00;100368.34;10214219;28;96728;-82
2022/11/23 20:17:14;;;;;;;23.08;7.80;;;;;;;13.46;100.00;100367.50;10214118;28;96617;-82
2022/11/23 20:22:17;;;;;;;36.58;10.15;;;;;;;13.39;100.00;100369.53;10214872;28;96652;-82
2022/11/23 20:27:22;;;;;;;31.63;9.07;;;;;;;13.31;100.00;100380.38;10213792;28;96722;-82
2022/11/23 20:32:25;;;;;;;34.22;9.15;;;;;;;13.36;100.00;100377.53;10213413;28;96852;-82
2022/11/23 20:37:28;;;;;;;33.20;9.13;;;;;;;13.22;100.00;100392.09;10213628;28;96781;-82
2022/11/23 20:42:33;;;;;;;38.30;10.50;;;;;;;13.09;100.00;100392.66;10251053;28;97215;-82
2022/11/23 20:47:36;;;;;;;30.17;9.82;;;;;;;13.00;100.00;100401.75;10253694;28;97038;-82
2022/11/23 20:52:39;;;;;;;28.90;9.10;;;;;;;12.99;100.00;100400.88;10253462;28;96706;-82
2022/11/23 20:57:44;;;;;;;30.35;10.38;;;;;;;12.77;100.00;100394.72;10251043;28;96798;-82
2022/11/23 21:02:49;;;;;;;31.90;9.93;;;;;;;12.75;100.00;100381.69;10253186;28;96612;-82
2022/11/23 21:07:52;;;;;;;29.23;8.88;;;;;;;12.68;100.00;100365.34;10252388;28;96750;-82
2022/11/23 21:18:17;;;;;;;38.83;10.05;;;;;;;12.70;100.00;100362.66;10253165;28;96941;-81
2022/11/23 21:23:21;;;;;;;36.67;9.48;;;;;;;12.70;100.00;100360.03;10252230;28;98334;-81
2022/11/23 21:28:25;;;;;;;37.83;10.77;;;;;;;12.71;100.00;100369.59;10251925;28;97199;-81
2022/11/23 21:33:29;;;;;;;34.85;8.35;;;;;;;12.58;100.00;100381.47;10217345;28;96844;-82
2022/11/23 21:38:37;;;;;;;32.80;9.32;;;;;;;12.45;100.00;100363.56;10211829;28;96694;-82
2022/11/23 21:43:42;;;;;;;37.22;9.82;;;;;;;12.45;100.00;100366.19;10211466;28;96827;-82
2022/11/23 21:48:45;;;;;;;;;;;;;;;12.43;100.00;100359.31;10211220;28;96780;-81
2022/11/23 21:53:48;;;;;;;30.45;9.00;;;;;;;12.42;100.00;100371.59;10211597;28;96730;-82
2022/11/23 21:58:53;;;;;;;37.40;8.52;;;;;;;12.38;100.00;100382.22;10211052;28;97300;-82
2022/11/23 22:03:56;;;;;;;;;;;;;;;12.25;100.00;100385.31;10243165;28;96757;-82
2022/11/23 22:09:00;;;;;;;34.55;8.73;;;;;;;12.19;100.00;100396.00;10210826;28;96839;-82
2022/11/23 22:14:07;;;;;;;32.58;8.27;;;;;;;12.25;100.00;100405.44;10210964;28;96818;-82
2022/11/23 22:19:12;;;;;;;32.08;8.63;;;;;;;12.22;100.00;100379.34;10211681;28;96784;-82
2022/11/23 22:24:16;;;;;;;32.30;8.60;;;;;;;12.09;100.00;100374.53;10245842;28;96693;-82
2022/11/23 22:29:21;;;;;;;31.00;7.93;;;;;;;12.08;100.00;100375.44;10257688;28;96729;-81
2022/11/23 22:34:25;;;;;;;36.22;9.10;;;;;;;12.20;100.00;100378.53;10257669;28;96558;-81
2022/11/23 22:39:28;;;;;;;32.80;8.60;;;;;;;12.32;100.00;100372.84;10236161;28;96846;-81
2022/11/23 22:44:33;;;;;;;28.92;8.02;;;;;;;12.39;100.00;100353.34;10216977;28;96815;-81
2022/11/23 22:49:37;;;;;;;32.03;7.75;;;;;;;12.42;100.00;100350.59;10217057;28;96972;-81
2022/11/23 22:54:40;;;;;;;36.28;8.00;;;;;;;12.43;100.00;100354.91;10216997;28;96841;-81
2022/11/23 22:59:45;;;;;;;36.85;8.57;;;;;;;12.45;100.00;100342.59;10216540;28;96878;-81
2022/11/23 23:04:48;;;;;;;30.70;8.20;;;;;;;12.44;100.00;100356.63;10249404;28;96871;-81
2022/11/23 23:09:52;;;;;;;29.83;7.53;;;;;;;12.42;100.00;100347.97;10257020;28;96755;-82
2022/11/23 23:14:57;;;;;;;25.20;8.20;;;;;;;12.37;100.00;100355.16;10225390;28;96895;-82
2022/11/23 23:20:00;;;;;;;26.48;7.88;;;;;;;12.37;100.00;100323.69;10216588;28;97223;-82